sensor_id;sensor_type;location;lat;lon;timestamp;temperature;humidity
41220;DHT22;26951;47.338;9.196;2023-07-29T00:01:41;16.00;67.40
41220;DHT22;26951;47.338;9.196;2023-07-29T00:04:25;16.00;67.10
41220;DHT22;26951;47.338;9.196;2023-07-29T00:07:09;16.10;66.90
41220;DHT22;26951;47.338;9.196;2023-07-29T00:09:53;16.10;67.80
41220;DHT22;26951;47.338;9.196;2023-07-29T00:12:37;16.10;67.20
41220;DHT22;26951;47.338;9.196;2023-07-29T00:15:22;16.20;67.20
41220;DHT22;26951;47.338;9.196;2023-07-29T00:18:06;16.20;67.10
41220;DHT22;26951;47.338;9.196;2023-07-29T00:20:50;16.20;67.50
41220;DHT22;26951;47.338;9.196;2023-07-29T00:23:34;16.20;67.50
41220;DHT22;26951;47.338;9.196;2023-07-29T00:26:18;16.20;67.10
41220;DHT22;26951;47.338;9.196;2023-07-29T00:29:02;16.20;67.40
41220;DHT22;26951;47.338;9.196;2023-07-29T00:31:46;16.20;67.10
41220;DHT22;26951;47.338;9.196;2023-07-29T00:34:30;16.20;67.10
41220;DHT22;26951;47.338;9.196;2023-07-29T00:37:14;16.30;67.70
41220;DHT22;26951;47.338;9.196;2023-07-29T00:39:58;16.30;67.90
41220;DHT22;26951;47.338;9.196;2023-07-29T00:42:42;16.30;67.70
41220;DHT22;26951;47.338;9.196;2023-07-29T00:45:27;16.30;68.00
41220;DHT22;26951;47.338;9.196;2023-07-29T00:48:13;16.30;68.10
41220;DHT22;26951;47.338;9.196;2023-07-29T00:50:57;16.30;68.10
41220;DHT22;26951;47.338;9.196;2023-07-29T00:53:42;16.30;68.40
41220;DHT22;26951;47.338;9.196;2023-07-29T00:56:26;16.30;68.80
41220;DHT22;26951;47.338;9.196;2023-07-29T00:59:10;16.30;68.70
41220;DHT22;26951;47.338;9.196;2023-07-29T01:02:04;16.40;68.60
41220;DHT22;26951;47.338;9.196;2023-07-29T01:04:53;16.40;67.50
41220;DHT22;26951;47.338;9.196;2023-07-29T01:07:51;16.40;67.70
41220;DHT22;26951;47.338;9.196;2023-07-29T01:13:46;16.40;67.50
41220;DHT22;26951;47.338;9.196;2023-07-29T01:16:41;16.30;68.90
41220;DHT22;26951;47.338;9.196;2023-07-29T01:22:34;16.30;69.60
41220;DHT22;26951;47.338;9.196;2023-07-29T01:25:19;16.30;69.30
41220;DHT22;26951;47.338;9.196;2023-07-29T01:28:04;16.30;68.30
41220;DHT22;26951;47.338;9.196;2023-07-29T01:30:49;16.30;68.20
41220;DHT22;26951;47.338;9.196;2023-07-29T01:33:40;16.30;67.70
41220;DHT22;26951;47.338;9.196;2023-07-29T01:36:28;16.30;67.10
41220;DHT22;26951;47.338;9.196;2023-07-29T01:39:15;16.30;67.10
41220;DHT22;26951;47.338;9.196;2023-07-29T01:42:00;16.20;66.70
41220;DHT22;26951;47.338;9.196;2023-07-29T01:44:44;16.20;66.70
41220;DHT22;26951;47.338;9.196;2023-07-29T01:47:29;16.20;66.40
41220;DHT22;26951;47.338;9.196;2023-07-29T01:50:13;16.20;66.40
41220;DHT22;26951;47.338;9.196;2023-07-29T01:52:57;16.20;67.00
41220;DHT22;26951;47.338;9.196;2023-07-29T01:55:42;16.20;67.00
41220;DHT22;26951;47.338;9.196;2023-07-29T01:58:26;16.20;66.40
41220;DHT22;26951;47.338;9.196;2023-07-29T02:01:10;16.20;66.60
41220;DHT22;26951;47.338;9.196;2023-07-29T02:03:54;16.20;66.90
41220;DHT22;26951;47.338;9.196;2023-07-29T02:06:41;16.20;67.10
41220;DHT22;26951;47.338;9.196;2023-07-29T02:09:25;16.20;67.00
41220;DHT22;26951;47.338;9.196;2023-07-29T02:12:09;16.20;66.70
41220;DHT22;26951;47.338;9.196;2023-07-29T02:14:53;16.20;66.30
41220;DHT22;26951;47.338;9.196;2023-07-29T02:17:41;16.20;65.60
41220;DHT22;26951;47.338;9.196;2023-07-29T02:20:25;16.20;65.60
41220;DHT22;26951;47.338;9.196;2023-07-29T02:23:09;16.10;65.80
41220;DHT22;26951;47.338;9.196;2023-07-29T02:25:54;16.10;66.20
41220;DHT22;26951;47.338;9.196;2023-07-29T02:28:37;16.10;66.50
41220;DHT22;26951;47.338;9.196;2023-07-29T02:31:23;16.10;66.70
41220;DHT22;26951;47.338;9.196;2023-07-29T02:34:08;16.00;66.70
41220;DHT22;26951;47.338;9.196;2023-07-29T02:36:52;16.10;66.80
41220;DHT22;26951;47.338;9.196;2023-07-29T02:39:36;16.10;66.80
41220;DHT22;26951;47.338;9.196;2023-07-29T02:42:21;16.10;66.70
41220;DHT22;26951;47.338;9.196;2023-07-29T02:45:06;16.10;66.60
41220;DHT22;26951;47.338;9.196;2023-07-29T02:47:53;16.10;66.30
41220;DHT22;26951;47.338;9.196;2023-07-29T02:50:37;16.10;66.20
41220;DHT22;26951;47.338;9.196;2023-07-29T02:53:22;16.10;66.00
41220;DHT22;26951;47.338;9.196;2023-07-29T02:56:06;16.10;66.20
41220;DHT22;26951;47.338;9.196;2023-07-29T02:58:53;16.10;66.20
41220;DHT22;26951;47.338;9.196;2023-07-29T03:01:37;16.10;65.60
41220;DHT22;26951;47.338;9.196;2023-07-29T03:04:21;16.10;65.60
41220;DHT22;26951;47.338;9.196;2023-07-29T03:07:05;16.10;65.70
41220;DHT22;26951;47.338;9.196;2023-07-29T03:09:49;16.10;65.80
41220;DHT22;26951;47.338;9.196;2023-07-29T03:12:33;16.10;65.80
41220;DHT22;26951;47.338;9.196;2023-07-29T03:15:17;16.10;66.20
41220;DHT22;26951;47.338;9.196;2023-07-29T03:18:01;16.10;66.60
41220;DHT22;26951;47.338;9.196;2023-07-29T03:20:48;16.20;66.60
41220;DHT22;26951;47.338;9.196;2023-07-29T03:23:34;16.10;67.10
41220;DHT22;26951;47.338;9.196;2023-07-29T03:26:18;16.10;67.60
41220;DHT22;26951;47.338;9.196;2023-07-29T03:29:02;16.20;67.70
41220;DHT22;26951;47.338;9.196;2023-07-29T03:31:46;16.10;68.40
41220;DHT22;26951;47.338;9.196;2023-07-29T03:34:30;16.10;69.60
41220;DHT22;26951;47.338;9.196;2023-07-29T03:37:14;16.10;69.90
41220;DHT22;26951;47.338;9.196;2023-07-29T03:39:58;16.10;71.10
41220;DHT22;26951;47.338;9.196;2023-07-29T03:42:42;16.10;70.50
41220;DHT22;26951;47.338;9.196;2023-07-29T03:45:27;16.10;70.80
41220;DHT22;26951;47.338;9.196;2023-07-29T03:48:11;16.10;70.90
41220;DHT22;26951;47.338;9.196;2023-07-29T03:50:55;16.10;71.10
41220;DHT22;26951;47.338;9.196;2023-07-29T03:53:39;16.10;71.10
41220;DHT22;26951;47.338;9.196;2023-07-29T03:56:23;16.10;71.20
41220;DHT22;26951;47.338;9.196;2023-07-29T03:59:07;16.10;72.10
41220;DHT22;26951;47.338;9.196;2023-07-29T04:01:51;16.10;72.20
41220;DHT22;26951;47.338;9.196;2023-07-29T04:04:35;16.20;72.60
41220;DHT22;26951;47.338;9.196;2023-07-29T04:07:20;16.20;72.80
41220;DHT22;26951;47.338;9.196;2023-07-29T04:10:04;16.20;72.60
41220;DHT22;26951;47.338;9.196;2023-07-29T04:12:49;16.20;72.70
41220;DHT22;26951;47.338;9.196;2023-07-29T04:15:33;16.20;73.50
41220;DHT22;26951;47.338;9.196;2023-07-29T04:18:17;16.20;73.60
41220;DHT22;26951;47.338;9.196;2023-07-29T04:21:01;16.20;74.10
41220;DHT22;26951;47.338;9.196;2023-07-29T04:23:46;16.20;74.10
41220;DHT22;26951;47.338;9.196;2023-07-29T04:26:30;16.20;74.10
41220;DHT22;26951;47.338;9.196;2023-07-29T04:29:14;16.20;74.30
41220;DHT22;26951;47.338;9.196;2023-07-29T04:31:58;16.20;74.20
41220;DHT22;26951;47.338;9.196;2023-07-29T04:34:42;16.20;76.60
41220;DHT22;26951;47.338;9.196;2023-07-29T04:37:26;16.20;76.60
41220;DHT22;26951;47.338;9.196;2023-07-29T04:40:11;16.20;76.40
41220;DHT22;26951;47.338;9.196;2023-07-29T04:42:55;16.20;75.10
41220;DHT22;26951;47.338;9.196;2023-07-29T04:45:43;16.20;74.20
41220;DHT22;26951;47.338;9.196;2023-07-29T04:48:27;16.20;74.20
41220;DHT22;26951;47.338;9.196;2023-07-29T04:51:11;16.20;74.10
41220;DHT22;26951;47.338;9.196;2023-07-29T04:53:55;16.20;74.10
41220;DHT22;26951;47.338;9.196;2023-07-29T04:56:40;16.10;74.30
41220;DHT22;26951;47.338;9.196;2023-07-29T04:59:24;16.20;75.00
41220;DHT22;26951;47.338;9.196;2023-07-29T05:02:08;16.10;74.60
41220;DHT22;26951;47.338;9.196;2023-07-29T05:04:52;16.20;75.00
41220;DHT22;26951;47.338;9.196;2023-07-29T05:07:36;16.20;76.00
41220;DHT22;26951;47.338;9.196;2023-07-29T05:10:20;16.20;76.00
41220;DHT22;26951;47.338;9.196;2023-07-29T05:13:04;16.20;75.60
41220;DHT22;26951;47.338;9.196;2023-07-29T05:15:49;16.30;75.80
41220;DHT22;26951;47.338;9.196;2023-07-29T05:18:33;16.30;76.70
41220;DHT22;26951;47.338;9.196;2023-07-29T05:21:17;16.40;77.50
41220;DHT22;26951;47.338;9.196;2023-07-29T05:24:01;16.40;77.80
41220;DHT22;26951;47.338;9.196;2023-07-29T05:26:46;16.50;78.20
41220;DHT22;26951;47.338;9.196;2023-07-29T05:29:30;16.50;78.40
41220;DHT22;26951;47.338;9.196;2023-07-29T05:32:14;16.50;78.70
41220;DHT22;26951;47.338;9.196;2023-07-29T05:34:58;16.50;78.90
41220;DHT22;26951;47.338;9.196;2023-07-29T05:37:42;16.70;79.90
41220;DHT22;26951;47.338;9.196;2023-07-29T05:40:26;16.70;80.30
41220;DHT22;26951;47.338;9.196;2023-07-29T05:43:10;16.80;81.20
41220;DHT22;26951;47.338;9.196;2023-07-29T05:45:55;16.90;80.70
41220;DHT22;26951;47.338;9.196;2023-07-29T05:48:39;17.00;80.60
41220;DHT22;26951;47.338;9.196;2023-07-29T05:51:23;17.00;81.10
41220;DHT22;26951;47.338;9.196;2023-07-29T05:54:07;17.10;81.00
41220;DHT22;26951;47.338;9.196;2023-07-29T05:56:51;17.10;80.30
41220;DHT22;26951;47.338;9.196;2023-07-29T05:59:35;17.20;79.90
41220;DHT22;26951;47.338;9.196;2023-07-29T06:02:19;17.20;79.00
41220;DHT22;26951;47.338;9.196;2023-07-29T06:05:04;17.10;79.30
41220;DHT22;26951;47.338;9.196;2023-07-29T06:07:48;17.10;79.40
41220;DHT22;26951;47.338;9.196;2023-07-29T06:10:32;17.10;78.00
41220;DHT22;26951;47.338;9.196;2023-07-29T06:13:16;17.20;78.10
41220;DHT22;26951;47.338;9.196;2023-07-29T06:16:00;17.20;78.00
41220;DHT22;26951;47.338;9.196;2023-07-29T06:18:45;17.20;77.00
41220;DHT22;26951;47.338;9.196;2023-07-29T06:21:29;17.20;75.30
41220;DHT22;26951;47.338;9.196;2023-07-29T06:24:14;17.20;76.10
41220;DHT22;26951;47.338;9.196;2023-07-29T06:26:58;17.10;76.50
41220;DHT22;26951;47.338;9.196;2023-07-29T06:29:42;17.10;76.20
41220;DHT22;26951;47.338;9.196;2023-07-29T06:32:26;17.20;76.70
41220;DHT22;26951;47.338;9.196;2023-07-29T06:35:10;17.20;76.90
41220;DHT22;26951;47.338;9.196;2023-07-29T06:37:55;17.20;77.20
41220;DHT22;26951;47.338;9.196;2023-07-29T06:40:39;17.20;77.40
41220;DHT22;26951;47.338;9.196;2023-07-29T06:43:23;17.20;77.60
41220;DHT22;26951;47.338;9.196;2023-07-29T06:46:07;17.20;78.20
41220;DHT22;26951;47.338;9.196;2023-07-29T06:48:51;17.20;78.50
41220;DHT22;26951;47.338;9.196;2023-07-29T06:51:35;17.30;79.20
41220;DHT22;26951;47.338;9.196;2023-07-29T06:54:24;17.30;79.90
41220;DHT22;26951;47.338;9.196;2023-07-29T06:57:09;17.40;80.50
41220;DHT22;26951;47.338;9.196;2023-07-29T06:59:53;17.40;80.10
41220;DHT22;26951;47.338;9.196;2023-07-29T07:02:37;17.50;79.60
41220;DHT22;26951;47.338;9.196;2023-07-29T07:05:21;17.50;79.40
41220;DHT22;26951;47.338;9.196;2023-07-29T07:08:05;17.50;79.10
41220;DHT22;26951;47.338;9.196;2023-07-29T07:10:49;17.60;79.00
41220;DHT22;26951;47.338;9.196;2023-07-29T07:13:33;17.60;79.10
41220;DHT22;26951;47.338;9.196;2023-07-29T07:16:18;17.70;79.90
41220;DHT22;26951;47.338;9.196;2023-07-29T07:19:02;17.80;81.70
41220;DHT22;26951;47.338;9.196;2023-07-29T07:21:46;17.90;82.40
41220;DHT22;26951;47.338;9.196;2023-07-29T07:24:30;18.00;84.50
41220;DHT22;26951;47.338;9.196;2023-07-29T07:27:14;18.10;86.30
41220;DHT22;26951;47.338;9.196;2023-07-29T07:29:58;18.30;87.00
41220;DHT22;26951;47.338;9.196;2023-07-29T07:32:43;18.40;84.70
41220;DHT22;26951;47.338;9.196;2023-07-29T07:35:27;18.60;86.10
41220;DHT22;26951;47.338;9.196;2023-07-29T07:38:11;18.80;84.80
41220;DHT22;26951;47.338;9.196;2023-07-29T07:40:56;19.00;87.30
41220;DHT22;26951;47.338;9.196;2023-07-29T07:43:41;19.20;88.00
41220;DHT22;26951;47.338;9.196;2023-07-29T07:46:25;19.40;82.80
41220;DHT22;26951;47.338;9.196;2023-07-29T07:49:09;19.60;79.00
41220;DHT22;26951;47.338;9.196;2023-07-29T07:51:53;19.80;75.30
41220;DHT22;26951;47.338;9.196;2023-07-29T07:54:37;20.00;80.30
41220;DHT22;26951;47.338;9.196;2023-07-29T07:57:22;20.30;77.20
41220;DHT22;26951;47.338;9.196;2023-07-29T08:00:06;20.50;78.30
41220;DHT22;26951;47.338;9.196;2023-07-29T08:02:51;20.90;71.60
41220;DHT22;26951;47.338;9.196;2023-07-29T08:05:35;21.20;72.30
41220;DHT22;26951;47.338;9.196;2023-07-29T08:08:19;21.40;68.00
41220;DHT22;26951;47.338;9.196;2023-07-29T08:11:03;21.70;67.80
41220;DHT22;26951;47.338;9.196;2023-07-29T08:13:47;22.00;69.70
41220;DHT22;26951;47.338;9.196;2023-07-29T08:16:32;22.30;65.20
41220;DHT22;26951;47.338;9.196;2023-07-29T08:19:16;22.40;61.40
41220;DHT22;26951;47.338;9.196;2023-07-29T08:22:02;22.70;59.40
41220;DHT22;26951;47.338;9.196;2023-07-29T08:24:47;22.80;60.80
41220;DHT22;26951;47.338;9.196;2023-07-29T08:27:33;23.00;58.20
41220;DHT22;26951;47.338;9.196;2023-07-29T08:30:17;23.30;58.50
41220;DHT22;26951;47.338;9.196;2023-07-29T08:33:03;23.50;55.10
41220;DHT22;26951;47.338;9.196;2023-07-29T08:35:47;23.60;53.20
41220;DHT22;26951;47.338;9.196;2023-07-29T08:38:31;23.70;54.30
41220;DHT22;26951;47.338;9.196;2023-07-29T08:44:09;23.90;51.90
41220;DHT22;26951;47.338;9.196;2023-07-29T08:46:54;23.90;53.40
41220;DHT22;26951;47.338;9.196;2023-07-29T08:49:40;23.90;54.00
41220;DHT22;26951;47.338;9.196;2023-07-29T08:52:26;24.00;54.40
41220;DHT22;26951;47.338;9.196;2023-07-29T08:55:10;24.10;53.80
41220;DHT22;26951;47.338;9.196;2023-07-29T08:57:54;24.10;52.20
41220;DHT22;26951;47.338;9.196;2023-07-29T09:00:39;24.20;51.50
41220;DHT22;26951;47.338;9.196;2023-07-29T09:03:24;24.30;53.20
41220;DHT22;26951;47.338;9.196;2023-07-29T09:06:08;24.40;51.70
41220;DHT22;26951;47.338;9.196;2023-07-29T09:08:54;24.60;53.10
41220;DHT22;26951;47.338;9.196;2023-07-29T09:11:40;24.70;50.70
41220;DHT22;26951;47.338;9.196;2023-07-29T09:14:24;24.80;51.00
41220;DHT22;26951;47.338;9.196;2023-07-29T09:17:08;25.00;49.10
41220;DHT22;26951;47.338;9.196;2023-07-29T09:19:54;25.00;50.90
41220;DHT22;26951;47.338;9.196;2023-07-29T09:22:38;25.10;48.10
41220;DHT22;26951;47.338;9.196;2023-07-29T09:25:24;25.10;49.10
41220;DHT22;26951;47.338;9.196;2023-07-29T09:28:13;25.20;47.00
41220;DHT22;26951;47.338;9.196;2023-07-29T09:30:59;25.30;45.60
41220;DHT22;26951;47.338;9.196;2023-07-29T09:33:43;25.30;44.80
41220;DHT22;26951;47.338;9.196;2023-07-29T09:36:30;25.30;45.50
41220;DHT22;26951;47.338;9.196;2023-07-29T09:39:15;25.30;47.70
41220;DHT22;26951;47.338;9.196;2023-07-29T09:41:59;25.30;46.80
41220;DHT22;26951;47.338;9.196;2023-07-29T09:44:43;25.40;45.00
41220;DHT22;26951;47.338;9.196;2023-07-29T09:47:27;25.50;45.20
41220;DHT22;26951;47.338;9.196;2023-07-29T09:50:11;25.40;43.40
41220;DHT22;26951;47.338;9.196;2023-07-29T09:52:56;25.50;43.50
41220;DHT22;26951;47.338;9.196;2023-07-29T09:55:48;25.40;44.50
41220;DHT22;26951;47.338;9.196;2023-07-29T09:58:33;25.20;46.80
41220;DHT22;26951;47.338;9.196;2023-07-29T10:01:17;25.40;45.90
41220;DHT22;26951;47.338;9.196;2023-07-29T10:04:03;25.50;46.60
41220;DHT22;26951;47.338;9.196;2023-07-29T10:06:47;25.60;45.00
41220;DHT22;26951;47.338;9.196;2023-07-29T10:09:32;25.70;46.90
41220;DHT22;26951;47.338;9.196;2023-07-29T10:12:17;25.90;47.40
41220;DHT22;26951;47.338;9.196;2023-07-29T10:15:05;26.00;45.80
41220;DHT22;26951;47.338;9.196;2023-07-29T10:17:50;25.90;42.60
41220;DHT22;26951;47.338;9.196;2023-07-29T10:20:36;26.00;44.30
41220;DHT22;26951;47.338;9.196;2023-07-29T10:23:21;26.20;44.20
41220;DHT22;26951;47.338;9.196;2023-07-29T10:26:10;26.30;47.20
41220;DHT22;26951;47.338;9.196;2023-07-29T10:28:56;26.40;47.70
41220;DHT22;26951;47.338;9.196;2023-07-29T10:31:45;26.40;44.90
41220;DHT22;26951;47.338;9.196;2023-07-29T10:34:31;26.30;43.30
41220;DHT22;26951;47.338;9.196;2023-07-29T10:37:15;26.20;46.30
41220;DHT22;26951;47.338;9.196;2023-07-29T10:40:00;26.30;45.80
41220;DHT22;26951;47.338;9.196;2023-07-29T10:43:02;26.40;40.90
41220;DHT22;26951;47.338;9.196;2023-07-29T10:45:46;26.40;43.90
41220;DHT22;26951;47.338;9.196;2023-07-29T10:51:25;26.40;42.00
41220;DHT22;26951;47.338;9.196;2023-07-29T10:54:14;26.50;42.50
41220;DHT22;26951;47.338;9.196;2023-07-29T10:56:58;26.50;42.00
41220;DHT22;26951;47.338;9.196;2023-07-29T10:59:56;26.70;42.60
41220;DHT22;26951;47.338;9.196;2023-07-29T11:02:41;26.70;42.00
41220;DHT22;26951;47.338;9.196;2023-07-29T11:05:25;26.90;44.60
41220;DHT22;26951;47.338;9.196;2023-07-29T11:13:47;27.40;43.30
41220;DHT22;26951;47.338;9.196;2023-07-29T11:16:32;27.40;40.40
41220;DHT22;26951;47.338;9.196;2023-07-29T11:19:19;27.30;40.60
41220;DHT22;26951;47.338;9.196;2023-07-29T11:22:04;27.20;40.50
41220;DHT22;26951;47.338;9.196;2023-07-29T11:24:48;27.20;41.80
41220;DHT22;26951;47.338;9.196;2023-07-29T11:27:33;27.10;40.90
41220;DHT22;26951;47.338;9.196;2023-07-29T11:30:17;27.20;41.00
41220;DHT22;26951;47.338;9.196;2023-07-29T11:33:01;27.30;38.90
41220;DHT22;26951;47.338;9.196;2023-07-29T11:35:45;27.30;41.20
41220;DHT22;26951;47.338;9.196;2023-07-29T11:38:29;27.40;41.90
41220;DHT22;26951;47.338;9.196;2023-07-29T11:41:19;27.50;39.00
41220;DHT22;26951;47.338;9.196;2023-07-29T11:44:09;27.40;36.70
41220;DHT22;26951;47.338;9.196;2023-07-29T11:46:54;27.40;38.10
41220;DHT22;26951;47.338;9.196;2023-07-29T11:49:39;27.30;37.00
41220;DHT22;26951;47.338;9.196;2023-07-29T11:52:24;27.10;37.10
41220;DHT22;26951;47.338;9.196;2023-07-29T11:55:08;26.70;39.40
41220;DHT22;26951;47.338;9.196;2023-07-29T11:57:52;26.30;39.20
41220;DHT22;26951;47.338;9.196;2023-07-29T12:00:38;26.10;40.70
41220;DHT22;26951;47.338;9.196;2023-07-29T12:03:22;25.80;41.60
41220;DHT22;26951;47.338;9.196;2023-07-29T12:06:07;25.50;42.10
41220;DHT22;26951;47.338;9.196;2023-07-29T12:08:51;25.40;43.50
41220;DHT22;26951;47.338;9.196;2023-07-29T12:11:36;25.30;43.90
41220;DHT22;26951;47.338;9.196;2023-07-29T12:14:20;25.10;44.20
41220;DHT22;26951;47.338;9.196;2023-07-29T12:17:06;24.90;45.80
41220;DHT22;26951;47.338;9.196;2023-07-29T12:19:54;24.60;48.80
41220;DHT22;26951;47.338;9.196;2023-07-29T12:22:38;24.40;47.20
41220;DHT22;26951;47.338;9.196;2023-07-29T12:25:23;23.90;48.80
41220;DHT22;26951;47.338;9.196;2023-07-29T12:28:07;23.50;52.70
41220;DHT22;26951;47.338;9.196;2023-07-29T12:30:55;22.90;55.30
41220;DHT22;26951;47.338;9.196;2023-07-29T12:33:40;22.40;55.30
41220;DHT22;26951;47.338;9.196;2023-07-29T12:36:45;21.80;57.00
41220;DHT22;26951;47.338;9.196;2023-07-29T12:39:33;21.60;57.60
41220;DHT22;26951;47.338;9.196;2023-07-29T12:42:17;21.30;52.60
41220;DHT22;26951;47.338;9.196;2023-07-29T12:45:01;21.10;53.80
41220;DHT22;26951;47.338;9.196;2023-07-29T12:47:45;21.00;54.80
41220;DHT22;26951;47.338;9.196;2023-07-29T12:50:29;21.00;55.10
41220;DHT22;26951;47.338;9.196;2023-07-29T12:53:13;20.90;53.80
41220;DHT22;26951;47.338;9.196;2023-07-29T12:55:58;20.80;56.80
41220;DHT22;26951;47.338;9.196;2023-07-29T12:58:42;20.80;59.10
41220;DHT22;26951;47.338;9.196;2023-07-29T13:01:26;20.80;59.70
41220;DHT22;26951;47.338;9.196;2023-07-29T13:04:11;20.80;59.90
41220;DHT22;26951;47.338;9.196;2023-07-29T13:06:55;20.70;58.80
41220;DHT22;26951;47.338;9.196;2023-07-29T13:09:40;20.70;58.20
41220;DHT22;26951;47.338;9.196;2023-07-29T13:12:25;20.70;56.60
41220;DHT22;26951;47.338;9.196;2023-07-29T13:15:09;20.60;54.60
41220;DHT22;26951;47.338;9.196;2023-07-29T13:17:53;20.50;54.70
41220;DHT22;26951;47.338;9.196;2023-07-29T13:20:37;20.60;56.10
41220;DHT22;26951;47.338;9.196;2023-07-29T13:23:21;20.60;56.20
41220;DHT22;26951;47.338;9.196;2023-07-29T13:26:06;20.60;57.90
41220;DHT22;26951;47.338;9.196;2023-07-29T13:28:50;20.50;57.90
41220;DHT22;26951;47.338;9.196;2023-07-29T13:31:34;20.30;56.70
41220;DHT22;26951;47.338;9.196;2023-07-29T13:34:18;20.20;57.10
41220;DHT22;26951;47.338;9.196;2023-07-29T13:37:02;20.10;56.80
41220;DHT22;26951;47.338;9.196;2023-07-29T13:39:47;20.00;57.20
41220;DHT22;26951;47.338;9.196;2023-07-29T13:42:31;19.90;57.70
41220;DHT22;26951;47.338;9.196;2023-07-29T13:45:15;19.60;57.50
41220;DHT22;26951;47.338;9.196;2023-07-29T13:47:59;19.40;57.10
41220;DHT22;26951;47.338;9.196;2023-07-29T13:50:43;19.30;57.90
41220;DHT22;26951;47.338;9.196;2023-07-29T13:53:28;19.20;58.30
41220;DHT22;26951;47.338;9.196;2023-07-29T13:56:12;19.20;59.40
41220;DHT22;26951;47.338;9.196;2023-07-29T13:58:56;19.10;60.00
41220;DHT22;26951;47.338;9.196;2023-07-29T14:01:40;19.10;60.00
41220;DHT22;26951;47.338;9.196;2023-07-29T14:04:24;19.00;61.40
41220;DHT22;26951;47.338;9.196;2023-07-29T14:07:09;18.90;61.40
41220;DHT22;26951;47.338;9.196;2023-07-29T14:09:53;18.90;61.40
41220;DHT22;26951;47.338;9.196;2023-07-29T14:12:37;18.80;63.50
41220;DHT22;26951;47.338;9.196;2023-07-29T14:15:21;18.70;65.20
41220;DHT22;26951;47.338;9.196;2023-07-29T14:18:06;18.70;66.10
41220;DHT22;26951;47.338;9.196;2023-07-29T14:20:50;18.70;65.10
41220;DHT22;26951;47.338;9.196;2023-07-29T14:23:35;18.60;65.10
41220;DHT22;26951;47.338;9.196;2023-07-29T14:26:19;18.50;65.30
41220;DHT22;26951;47.338;9.196;2023-07-29T14:29:03;18.50;66.30
41220;DHT22;26951;47.338;9.196;2023-07-29T14:31:47;18.40;66.80
41220;DHT22;26951;47.338;9.196;2023-07-29T14:34:31;18.40;66.70
41220;DHT22;26951;47.338;9.196;2023-07-29T14:37:16;18.40;66.80
41220;DHT22;26951;47.338;9.196;2023-07-29T14:40:00;18.30;66.40
41220;DHT22;26951;47.338;9.196;2023-07-29T14:42:45;18.30;65.90
41220;DHT22;26951;47.338;9.196;2023-07-29T14:45:29;18.30;67.30
41220;DHT22;26951;47.338;9.196;2023-07-29T14:48:13;18.30;67.70
41220;DHT22;26951;47.338;9.196;2023-07-29T14:50:57;18.30;68.00
41220;DHT22;26951;47.338;9.196;2023-07-29T14:53:41;18.30;67.50
41220;DHT22;26951;47.338;9.196;2023-07-29T14:56:25;18.40;67.00
41220;DHT22;26951;47.338;9.196;2023-07-29T14:59:09;18.40;68.40
41220;DHT22;26951;47.338;9.196;2023-07-29T15:01:53;18.40;69.00
41220;DHT22;26951;47.338;9.196;2023-07-29T15:04:37;18.50;69.50
41220;DHT22;26951;47.338;9.196;2023-07-29T15:07:21;18.50;69.60
41220;DHT22;26951;47.338;9.196;2023-07-29T15:10:06;18.50;69.80
41220;DHT22;26951;47.338;9.196;2023-07-29T15:12:50;18.50;68.70
41220;DHT22;26951;47.338;9.196;2023-07-29T15:15:34;18.60;69.30
41220;DHT22;26951;47.338;9.196;2023-07-29T15:18:18;18.60;69.30
41220;DHT22;26951;47.338;9.196;2023-07-29T15:21:02;18.60;69.10
41220;DHT22;26951;47.338;9.196;2023-07-29T15:23:46;18.60;68.50
41220;DHT22;26951;47.338;9.196;2023-07-29T15:26:31;18.70;69.50
41220;DHT22;26951;47.338;9.196;2023-07-29T15:29:15;18.70;70.20
41220;DHT22;26951;47.338;9.196;2023-07-29T15:31:59;18.80;70.30
41220;DHT22;26951;47.338;9.196;2023-07-29T15:34:43;18.90;70.30
41220;DHT22;26951;47.338;9.196;2023-07-29T15:37:27;18.90;69.80
41220;DHT22;26951;47.338;9.196;2023-07-29T15:40:11;19.00;69.10
41220;DHT22;26951;47.338;9.196;2023-07-29T15:42:55;19.00;68.90
41220;DHT22;26951;47.338;9.196;2023-07-29T15:45:40;19.10;68.80
41220;DHT22;26951;47.338;9.196;2023-07-29T15:48:24;19.10;69.40
41220;DHT22;26951;47.338;9.196;2023-07-29T15:51:08;19.20;70.00
41220;DHT22;26951;47.338;9.196;2023-07-29T15:53:52;19.20;69.80
41220;DHT22;26951;47.338;9.196;2023-07-29T15:56:37;19.20;69.20
41220;DHT22;26951;47.338;9.196;2023-07-29T15:59:22;19.10;68.30
41220;DHT22;26951;47.338;9.196;2023-07-29T16:02:09;19.10;68.30
41220;DHT22;26951;47.338;9.196;2023-07-29T16:04:53;19.20;69.10
41220;DHT22;26951;47.338;9.196;2023-07-29T16:07:38;19.10;69.10
41220;DHT22;26951;47.338;9.196;2023-07-29T16:10:22;19.20;69.50
41220;DHT22;26951;47.338;9.196;2023-07-29T16:13:07;19.10;69.30
41220;DHT22;26951;47.338;9.196;2023-07-29T16:15:51;19.10;70.20
41220;DHT22;26951;47.338;9.196;2023-07-29T16:18:35;19.10;70.20
41220;DHT22;26951;47.338;9.196;2023-07-29T16:21:19;19.00;70.70
41220;DHT22;26951;47.338;9.196;2023-07-29T16:24:03;19.00;70.90
41220;DHT22;26951;47.338;9.196;2023-07-29T16:26:48;19.00;70.90
41220;DHT22;26951;47.338;9.196;2023-07-29T16:29:32;19.00;71.40
41220;DHT22;26951;47.338;9.196;2023-07-29T16:32:17;19.00;71.50
41220;DHT22;26951;47.338;9.196;2023-07-29T16:35:01;19.00;71.70
41220;DHT22;26951;47.338;9.196;2023-07-29T16:37:45;19.00;71.60
41220;DHT22;26951;47.338;9.196;2023-07-29T16:40:30;18.90;72.20
41220;DHT22;26951;47.338;9.196;2023-07-29T16:43:14;18.90;71.90
41220;DHT22;26951;47.338;9.196;2023-07-29T16:45:58;18.80;72.70
41220;DHT22;26951;47.338;9.196;2023-07-29T16:48:42;18.80;73.70
41220;DHT22;26951;47.338;9.196;2023-07-29T16:51:26;18.80;73.80
41220;DHT22;26951;47.338;9.196;2023-07-29T16:54:10;18.70;73.10
41220;DHT22;26951;47.338;9.196;2023-07-29T16:56:55;18.70;73.20
41220;DHT22;26951;47.338;9.196;2023-07-29T16:59:39;18.70;73.20
41220;DHT22;26951;47.338;9.196;2023-07-29T17:02:23;18.70;72.90
41220;DHT22;26951;47.338;9.196;2023-07-29T17:05:08;18.70;72.80
41220;DHT22;26951;47.338;9.196;2023-07-29T17:07:52;18.70;72.60
41220;DHT22;26951;47.338;9.196;2023-07-29T17:10:36;18.60;72.50
41220;DHT22;26951;47.338;9.196;2023-07-29T17:13:20;18.70;72.90
41220;DHT22;26951;47.338;9.196;2023-07-29T17:16:05;18.60;72.40
41220;DHT22;26951;47.338;9.196;2023-07-29T17:18:49;18.60;72.60
41220;DHT22;26951;47.338;9.196;2023-07-29T17:21:33;18.50;72.50
41220;DHT22;26951;47.338;9.196;2023-07-29T17:24:17;18.60;72.60
41220;DHT22;26951;47.338;9.196;2023-07-29T17:27:01;18.50;71.90
41220;DHT22;26951;47.338;9.196;2023-07-29T17:29:45;18.50;73.40
41220;DHT22;26951;47.338;9.196;2023-07-29T17:32:29;18.50;74.00
41220;DHT22;26951;47.338;9.196;2023-07-29T17:35:14;18.50;73.50
41220;DHT22;26951;47.338;9.196;2023-07-29T17:37:58;18.40;72.40